Strona główna
METAR-TAF:

METAR-TAF

Lotnisko :

Plymouth Municipal Airport

Plymouth, Massachusetts, Stany Zjednoczone

Szerokość geograficzna: 41-54-31N, Długość geograficzna: 070-43-41W, wysokość: 45 m

Aktualna obserwacja pogody

Raport powstał 22 minut temu, godzina 03:52 UTC
Cisza
Temperatura -1°C
Wilgotność 93%
Ciśnienie 1014 hPa
Widzialność: 16.1 km
Zachmurzenie całkowite na wysokości 4600 ft

METAR: KPYM 010352Z AUTO 00000KT 10SM OVC046 M01/M02 A2995 RMK AO2 SLP145 T10111022

czas: 00:14 (04:14 UTC)


TAF: brakujący

Obserwacja i prognoza pogody dla ponad 4000 lotnisk (raport METAR i TAF).

Dostępne stacje oznaczono żółtymi i czerwonymi punktami na mapie.

Najedź kursorem aby zobaczyć nazwę stacji.

Kliknij aby zobaczyć obserwacje i prognozy pogody.

Aby zmienić mapę: kliknij na zielony przycisk z czarnym krzyżykiem, aby powiększyć; na zielony przycisk z myślnikiem, aby pomniejszyć; na zielone strzałki, aby przejść do map sąsiednich.


METAR-TAF: